Time;durP1;ratioP1;P1;durP2;ratioP2;P2;SDS_P1;SDS_P2;PMS_P1;PMS_P2;Temp;Humidity;BMP_temperature;BMP_pressure;BME280_temperature;BME280_humidity;BME280_pressure;Samples;Min_cycle;Max_cycle;Signal;HPM_P1;HPM_P2
2024/02/14 00:01:18;;;;;;;4.97;1.48;;;;;;;;;;5046090;28;20048;-66
2024/02/14 00:03:45;;;;;;;3.67;1.70;;;;;;;;;;5036850;28;20037;-67
2024/02/14 00:06:13;;;;;;;4.68;1.77;;;;;;;;;;5047624;28;20045;-65
2024/02/14 00:08:40;;;;;;;2.60;1.27;;;;;;;;;;5045022;28;20180;-67
2024/02/14 00:11:08;;;;;;;3.72;1.63;;;;;;;;;;5044049;28;20049;-65
2024/02/14 00:13:35;;;;;;;3.97;1.77;;;;;;;;;;5031017;28;20124;-65
2024/02/14 00:16:03;;;;;;;4.15;1.60;;;;;;;;;;5040382;28;20406;-65
2024/02/14 00:18:30;;;;;;;6.95;1.75;;;;;;;;;;5019891;28;20053;-66
2024/02/14 00:20:57;;;;;;;2.92;1.38;;;;;;;;;;5027617;28;20053;-66
2024/02/14 00:23:24;;;;;;;3.10;1.52;;;;;;;;;;5026366;28;20056;-66
2024/02/14 00:25:51;;;;;;;4.70;1.80;;;;;;;;;;5031350;28;20045;-68
2024/02/14 00:28:17;;;;;;;2.55;1.45;;;;;;;;;;5025748;28;20079;-65
2024/02/14 00:30:43;;;;;;;3.65;1.60;;;;;;;;;;5034656;28;20089;-66
2024/02/14 00:33:11;;;;;;;3.45;1.73;;;;;;;;;;5013006;28;20121;-66
2024/02/14 00:35:38;;;;;;;2.85;1.40;;;;;;;;;;5036662;28;20056;-65
2024/02/14 00:38:05;;;;;;;5.05;1.67;;;;;;;;;;5028412;28;20148;-65
2024/02/14 00:40:32;;;;;;;4.10;1.70;;;;;;;;;;5032966;28;20057;-66
2024/02/14 00:42:58;;;;;;;3.92;1.50;;;;;;;;;;5029398;28;20052;-66
2024/02/14 00:45:25;;;;;;;3.15;1.48;;;;;;;;;;5029997;28;20049;-68
2024/02/14 00:47:52;;;;;;;2.92;1.35;;;;;;;;;;5032489;28;20384;-65
2024/02/14 00:50:20;;;;;;;2.22;1.50;;;;;;;;;;5032050;28;20053;-65
2024/02/14 00:52:47;;;;;;;3.28;1.77;;;;;;;;;;5026010;28;20056;-65
2024/02/14 00:55:14;;;;;;;4.00;1.70;;;;;;;;;;5030243;28;20065;-66
2024/02/14 00:57:41;;;;;;;5.03;1.70;;;;;;;;;;5033789;28;20045;-66
2024/02/14 01:00:09;;;;;;;4.22;1.58;;;;;;;;;;5030056;28;20045;-66
2024/02/14 01:02:36;;;;;;;5.05;1.98;;;;;;;;;;5018072;28;20068;-66
2024/02/14 01:05:04;;;;;;;3.55;1.83;;;;;;;;;;5022988;28;20060;-66
2024/02/14 01:07:32;;;;;;;2.63;1.40;;;;;;;;;;5034413;28;20055;-65
2024/02/14 01:09:59;;;;;;;6.78;1.70;;;;;;;;;;5024581;28;20128;-66
2024/02/14 01:12:26;;;;;;;5.95;2.00;;;;;;;;;;5023687;28;20057;-65
2024/02/14 01:14:53;;;;;;;5.93;2.22;;;;;;;;;;5029533;28;20142;-65
2024/02/14 01:17:20;;;;;;;3.92;1.85;;;;;;;;;;5034776;28;20152;-68
2024/02/14 01:19:47;;;;;;;4.60;1.83;;;;;;;;;;5028107;28;20048;-70
2024/02/14 01:22:16;;;;;;;5.25;1.85;;;;;;;;;;5053515;28;20127;-66
2024/02/14 01:24:44;;;;;;;5.45;2.15;;;;;;;;;;5028466;28;20049;-66
2024/02/14 01:27:11;;;;;;;3.60;1.70;;;;;;;;;;5033037;28;20056;-65
2024/02/14 01:29:38;;;;;;;2.47;1.15;;;;;;;;;;5034232;28;20068;-66
2024/02/14 01:32:06;;;;;;;7.05;2.05;;;;;;;;;;5024217;28;20576;-66
2024/02/14 01:34:33;;;;;;;4.80;1.85;;;;;;;;;;5029874;28;20048;-66
2024/02/14 01:37:00;;;;;;;12.05;2.20;;;;;;;;;;5027104;28;20049;-65
2024/02/14 01:39:27;;;;;;;5.85;2.20;;;;;;;;;;5028212;28;20076;-66
2024/02/14 01:41:55;;;;;;;3.63;2.10;;;;;;;;;;5017976;28;20068;-66
2024/02/14 01:44:22;;;;;;;6.60;2.53;;;;;;;;;;5031166;28;20052;-65
2024/02/14 01:46:50;;;;;;;3.35;1.80;;;;;;;;;;5035200;28;20127;-66
2024/02/14 01:49:17;;;;;;;4.15;2.00;;;;;;;;;;5034372;28;20139;-66
2024/02/14 01:51:49;;;;;;;5.50;2.13;;;;;;;;;;5029905;28;20056;-65
2024/02/14 01:54:17;;;;;;;7.03;2.60;;;;;;;;;;5005140;28;20074;-66
2024/02/14 01:56:44;;;;;;;5.65;2.17;;;;;;;;;;5020397;28;20085;-66
2024/02/14 01:59:15;;;;;;;6.88;2.67;;;;;;;;;;5009603;28;20062;-66
2024/02/14 02:01:42;;;;;;;4.43;2.30;;;;;;;;;;5001706;28;20158;-66
2024/02/14 02:04:10;;;;;;;5.30;2.15;;;;;;;;;;5013635;28;20057;-66
2024/02/14 02:06:37;;;;;;;9.30;3.30;;;;;;;;;;5028993;28;20184;-65
2024/02/14 02:09:04;;;;;;;9.45;2.60;;;;;;;;;;5031451;28;20144;-66
2024/02/14 02:11:31;;;;;;;5.82;2.20;;;;;;;;;;5040127;28;20150;-65
2024/02/14 02:13:58;;;;;;;5.75;2.10;;;;;;;;;;5008335;28;20108;-67
2024/02/14 02:16:27;;;;;;;5.32;2.53;;;;;;;;;;5012930;28;20053;-66
2024/02/14 02:18:54;;;;;;;4.13;2.25;;;;;;;;;;5010540;28;20045;-65
2024/02/14 02:21:23;;;;;;;5.35;2.88;;;;;;;;;;5014756;28;20041;-65
2024/02/14 02:23:51;;;;;;;;;;;;;;;;;;4999585;28;20054;-65
2024/02/14 02:26:17;;;;;;;12.77;4.82;;;;;;;;;;5014973;28;19994;-65
2024/02/14 02:28:44;;;;;;;4.82;2.25;;;;;;;;;;5015840;28;20053;-68
2024/02/14 02:31:11;;;;;;;5.82;2.22;;;;;;;;;;5013573;28;20060;-65
2024/02/14 02:33:39;;;;;;;4.72;2.03;;;;;;;;;;5022599;28;20047;-65
2024/02/14 02:36:09;;;;;;;7.00;2.72;;;;;;;;;;5032443;28;20130;-66
2024/02/14 02:38:37;;;;;;;5.25;2.30;;;;;;;;;;5029115;28;20053;-66
2024/02/14 02:41:06;;;;;;;5.97;2.83;;;;;;;;;;5034151;28;20045;-66
2024/02/14 02:43:34;;;;;;;7.38;2.25;;;;;;;;;;5023219;28;20069;-65
2024/02/14 02:46:00;;;;;;;4.10;1.98;;;;;;;;;;5021049;28;20060;-66
2024/02/14 02:48:27;;;;;;;5.60;2.53;;;;;;;;;;5031530;28;20061;-66
2024/02/14 02:50:54;;;;;;;7.40;2.25;;;;;;;;;;5025606;28;20109;-67
2024/02/14 02:53:21;;;;;;;6.40;2.33;;;;;;;;;;5027404;28;20064;-66
2024/02/14 02:55:51;;;;;;;6.15;2.38;;;;;;;;;;5019465;28;20072;-69
2024/02/14 02:58:21;;;;;;;4.72;2.35;;;;;;;;;;5031921;28;20052;-70
2024/02/14 03:00:49;;;;;;;5.68;2.75;;;;;;;;;;5022346;28;20127;-68
2024/02/14 03:03:16;;;;;;;5.35;2.10;;;;;;;;;;5032519;28;20053;-67
2024/02/14 03:05:46;;;;;;;5.90;2.83;;;;;;;;;;5009161;28;20067;-65
2024/02/14 03:08:15;;;;;;;7.78;2.38;;;;;;;;;;5035155;28;20060;-66
2024/02/14 03:10:42;;;;;;;10.27;2.85;;;;;;;;;;5028375;28;20044;-68
2024/02/14 03:13:11;;;;;;;6.72;2.65;;;;;;;;;;5035838;28;20060;-65
2024/02/14 03:15:43;;;;;;;9.88;2.65;;;;;;;;;;5022764;28;20080;-65
2024/02/14 03:18:10;;;;;;;5.38;2.45;;;;;;;;;;5033014;28;20045;-65
2024/02/14 03:20:37;;;;;;;6.25;2.78;;;;;;;;;;5034650;28;20048;-64
2024/02/14 03:23:04;;;;;;;5.28;2.70;;;;;;;;;;5035455;28;20053;-65
2024/02/14 03:25:31;;;;;;;6.30;2.80;;;;;;;;;;5019232;28;20049;-64
2024/02/14 03:27:58;;;;;;;5.10;2.60;;;;;;;;;;5025506;28;20056;-65
2024/02/14 03:30:25;;;;;;;8.10;2.88;;;;;;;;;;5033530;28;20344;-65
2024/02/14 03:32:53;;;;;;;13.40;2.92;;;;;;;;;;5035836;28;20061;-66
2024/02/14 03:35:20;;;;;;;6.05;2.58;;;;;;;;;;5032453;28;20060;-65
2024/02/14 03:37:52;;;;;;;7.82;3.10;;;;;;;;;;5033726;28;20044;-68
2024/02/14 03:40:20;;;;;;;8.00;2.80;;;;;;;;;;5034345;28;20068;-66
2024/02/14 03:42:47;;;;;;;6.88;3.25;;;;;;;;;;5033612;28;20072;-66
2024/02/14 03:45:14;;;;;;;5.45;2.83;;;;;;;;;;5026740;28;20053;-65
2024/02/14 03:47:41;;;;;;;6.78;2.63;;;;;;;;;;5032048;28;20056;-65
2024/02/14 03:50:13;;;;;;;5.13;3.13;;;;;;;;;;5030395;28;20053;-66
2024/02/14 03:52:39;;;;;;;6.72;3.05;;;;;;;;;;5028465;28;20114;-66
2024/02/14 03:55:08;;;;;;;7.50;3.90;;;;;;;;;;5031997;28;20064;-66
2024/02/14 03:57:38;;;;;;;;;;;;;;;;;;5030852;28;20344;-66
2024/02/14 04:00:10;;;;;;;12.52;5.13;;;;;;;;;;5054100;28;19952;-66
2024/02/14 04:02:36;;;;;;;6.60;3.17;;;;;;;;;;5024322;28;20115;-65
2024/02/14 04:05:03;;;;;;;7.47;3.70;;;;;;;;;;5018095;28;20065;-66
2024/02/14 04:07:32;;;;;;;8.10;3.65;;;;;;;;;;5020544;28;20053;-66
2024/02/14 04:09:58;;;;;;;8.88;3.95;;;;;;;;;;5011597;28;20045;-67
2024/02/14 04:12:25;;;;;;;9.23;3.70;;;;;;;;;;5017881;28;20421;-66
2024/02/14 04:14:52;;;;;;;9.65;3.40;;;;;;;;;;5026172;28;20072;-68
2024/02/14 04:17:19;;;;;;;6.95;3.45;;;;;;;;;;5023204;28;20068;-67
2024/02/14 04:19:47;;;;;;;7.18;3.75;;;;;;;;;;5021051;28;20071;-66
2024/02/14 04:22:14;;;;;;;13.07;4.60;;;;;;;;;;5037576;28;20053;-66
2024/02/14 04:24:42;;;;;;;18.20;4.65;;;;;;;;;;5033273;28;20071;-65
2024/02/14 04:27:09;;;;;;;5.22;2.72;;;;;;;;;;5037773;28;20053;-66
2024/02/14 04:29:36;;;;;;;7.43;3.50;;;;;;;;;;5037270;28;20125;-67
2024/02/14 04:32:03;;;;;;;6.93;2.83;;;;;;;;;;5032781;28;20232;-65
2024/02/14 04:34:31;;;;;;;9.05;3.85;;;;;;;;;;5016828;28;20142;-66
2024/02/14 04:36:58;;;;;;;10.30;3.90;;;;;;;;;;5012936;28;20138;-66
2024/02/14 04:39:25;;;;;;;13.45;3.75;;;;;;;;;;5017047;28;20061;-66
2024/02/14 04:41:56;;;;;;;7.70;4.03;;;;;;;;;;5013163;28;20068;-69
2024/02/14 04:44:23;;;;;;;9.05;4.20;;;;;;;;;;5023336;28;20060;-67
2024/02/14 04:46:50;;;;;;;9.30;4.45;;;;;;;;;;5039127;28;20085;-66
2024/02/14 04:49:16;;;;;;;9.50;4.20;;;;;;;;;;5036820;28;20056;-65
2024/02/14 04:51:43;;;;;;;16.35;3.30;;;;;;;;;;5032050;28;20059;-65
2024/02/14 04:54:10;;;;;;;10.38;4.07;;;;;;;;;;5034463;28;20091;-66
2024/02/14 04:56:37;;;;;;;9.48;4.18;;;;;;;;;;5038283;28;20055;-66
2024/02/14 04:59:05;;;;;;;10.18;4.13;;;;;;;;;;5036925;28;20119;-66
2024/02/14 05:01:32;;;;;;;8.93;3.97;;;;;;;;;;5035887;28;20048;-66
2024/02/14 05:03:59;;;;;;;10.20;4.38;;;;;;;;;;5028225;28;20289;-66
2024/02/14 05:06:26;;;;;;;8.35;4.20;;;;;;;;;;5037798;28;20049;-65
2024/02/14 05:08:53;;;;;;;10.23;3.72;;;;;;;;;;5034535;28;20065;-66
2024/02/14 05:11:20;;;;;;;11.07;5.10;;;;;;;;;;5022052;28;20069;-66
2024/02/14 05:13:49;;;;;;;9.13;4.38;;;;;;;;;;5023235;28;20112;-68
2024/02/14 05:16:20;;;;;;;14.43;4.88;;;;;;;;;;5024635;28;20055;-66
2024/02/14 05:18:47;;;;;;;8.68;4.45;;;;;;;;;;5040016;28;20084;-66
2024/02/14 05:21:14;;;;;;;8.93;4.50;;;;;;;;;;5036153;28;20053;-66
2024/02/14 05:23:43;;;;;;;9.88;5.10;;;;;;;;;;5022688;28;20068;-65
2024/02/14 05:26:10;;;;;;;12.98;5.35;;;;;;;;;;5032468;28;20145;-66
2024/02/14 05:28:37;;;;;;;10.55;4.40;;;;;;;;;;5038302;28;20104;-65
2024/02/14 05:31:04;;;;;;;9.05;4.57;;;;;;;;;;5033102;28;20061;-66
2024/02/14 05:33:32;;;;;;;10.88;4.45;;;;;;;;;;5029477;28;20061;-65
2024/02/14 05:35:59;;;;;;;14.93;5.18;;;;;;;;;;5030686;28;20087;-69
2024/02/14 05:38:25;;;;;;;16.95;6.63;;;;;;;;;;5035649;28;20049;-65
2024/02/14 05:40:52;;;;;;;13.65;5.03;;;;;;;;;;5034457;28;20438;-65
2024/02/14 05:43:19;;;;;;;8.48;4.57;;;;;;;;;;5030008;28;20056;-69
2024/02/14 05:45:46;;;;;;;7.78;4.35;;;;;;;;;;4998505;28;20095;-65
2024/02/14 05:48:14;;;;;;;9.73;4.47;;;;;;;;;;5015226;28;20095;-65
2024/02/14 05:50:43;;;;;;;8.43;3.95;;;;;;;;;;5039672;28;20050;-65
2024/02/14 05:53:12;;;;;;;8.63;4.55;;;;;;;;;;5011233;28;20061;-66
2024/02/14 05:55:39;;;;;;;9.55;5.03;;;;;;;;;;5015750;28;20127;-65
2024/02/14 05:58:06;;;;;;;6.65;3.75;;;;;;;;;;5019048;28;20053;-66
2024/02/14 06:00:33;;;;;;;9.38;4.10;;;;;;;;;;5023481;28;20073;-66
2024/02/14 06:02:59;;;;;;;7.90;4.10;;;;;;;;;;5030423;28;20061;-68
2024/02/14 06:05:26;;;;;;;8.23;4.10;;;;;;;;;;5013244;28;20053;-66
2024/02/14 06:07:55;;;;;;;15.35;6.60;;;;;;;;;;5041751;28;20107;-67
2024/02/14 06:10:22;;;;;;;9.93;4.57;;;;;;;;;;5025835;28;20104;-68
2024/02/14 06:12:49;;;;;;;8.63;4.43;;;;;;;;;;5031713;28;20076;-67
2024/02/14 06:15:16;;;;;;;10.25;4.80;;;;;;;;;;5027644;28;20160;-66
2024/02/14 06:17:46;;;;;;;7.20;4.07;;;;;;;;;;5020011;28;20156;-67
2024/02/14 06:20:13;;;;;;;11.02;4.78;;;;;;;;;;5026179;28;20057;-70
2024/02/14 06:22:40;;;;;;;7.90;4.38;;;;;;;;;;5026874;28;20080;-66
2024/02/14 06:25:11;;;;;;;8.88;4.05;;;;;;;;;;5020646;28;20052;-67
2024/02/14 06:27:38;;;;;;;12.68;6.13;;;;;;;;;;5028302;28;20136;-66
2024/02/14 06:30:07;;;;;;;13.48;5.63;;;;;;;;;;5023177;28;20060;-67
2024/02/14 06:32:33;;;;;;;12.13;4.30;;;;;;;;;;5031975;28;20052;-66
2024/02/14 06:35:00;;;;;;;12.50;4.80;;;;;;;;;;5015268;28;20053;-66
2024/02/14 06:37:27;;;;;;;9.15;4.30;;;;;;;;;;5005302;28;20050;-66
2024/02/14 06:39:54;;;;;;;18.55;7.13;;;;;;;;;;5002303;28;20061;-66
2024/02/14 06:42:23;;;;;;;8.50;4.55;;;;;;;;;;5006992;28;20057;-67
2024/02/14 06:44:50;;;;;;;9.20;5.07;;;;;;;;;;5017830;28;20064;-67
2024/02/14 06:47:18;;;;;;;9.48;4.57;;;;;;;;;;5011695;28;20059;-67
2024/02/14 06:49:48;;;;;;;8.90;4.15;;;;;;;;;;5010008;28;20061;-66
2024/02/14 06:52:15;;;;;;;7.55;4.10;;;;;;;;;;5013313;28;20065;-67
2024/02/14 06:54:42;;;;;;;8.10;3.97;;;;;;;;;;5019986;28;20083;-67
2024/02/14 06:57:09;;;;;;;11.48;4.32;;;;;;;;;;5029892;28;20065;-67
2024/02/14 06:59:38;;;;;;;8.43;4.20;;;;;;;;;;5036468;28;20049;-66
2024/02/14 07:02:06;;;;;;;8.35;4.65;;;;;;;;;;5030435;28;20064;-64
2024/02/14 07:04:33;;;;;;;10.37;4.23;;;;;;;;;;4982631;28;20072;-65
2024/02/14 07:07:00;;;;;;;6.10;3.28;;;;;;;;;;5026838;28;20339;-64
2024/02/14 07:09:28;;;;;;;9.57;4.43;;;;;;;;;;5032936;28;20060;-66
2024/02/14 07:11:56;;;;;;;8.80;3.78;;;;;;;;;;5033119;28;20103;-65
2024/02/14 07:15:00;;;;;;;10.02;4.10;;;;;;;;;;5011097;28;20191;-65
2024/02/14 07:17:26;;;;;;;7.55;3.75;;;;;;;;;;5026010;28;20072;-65
2024/02/14 07:19:53;;;;;;;7.28;3.75;;;;;;;;;;5029538;28;20099;-65
2024/02/14 07:22:20;;;;;;;10.10;4.28;;;;;;;;;;5035984;28;20056;-66
2024/02/14 07:24:47;;;;;;;7.82;4.03;;;;;;;;;;5020033;28;20053;-66
2024/02/14 07:27:16;;;;;;;8.52;4.50;;;;;;;;;;5019108;28;20061;-65
2024/02/14 07:29:43;;;;;;;;;;;;;;;;;;5004273;28;20053;-65
2024/02/14 07:32:14;;;;;;;7.38;4.13;;;;;;;;;;5036524;28;20194;-64
2024/02/14 07:34:42;;;;;;;13.00;5.03;;;;;;;;;;5013841;28;20048;-66
2024/02/14 07:37:09;;;;;;;9.77;5.45;;;;;;;;;;5038533;28;20200;-65
2024/02/14 07:39:35;;;;;;;12.98;5.15;;;;;;;;;;5032617;28;20060;-70
2024/02/14 07:42:03;;;;;;;9.98;5.15;;;;;;;;;;5024042;28;20049;-65
2024/02/14 07:44:30;;;;;;;11.55;4.88;;;;;;;;;;5032304;28;20163;-64
2024/02/14 07:47:00;;;;;;;11.43;5.25;;;;;;;;;;5024516;28;20092;-66
2024/02/14 07:49:28;;;;;;;11.90;6.05;;;;;;;;;;5036730;28;20126;-66
2024/02/14 07:51:56;;;;;;;14.18;5.88;;;;;;;;;;5036965;28;20063;-65
2024/02/14 07:54:23;;;;;;;10.73;5.70;;;;;;;;;;5035625;28;20063;-64
2024/02/14 07:56:50;;;;;;;12.90;5.65;;;;;;;;;;5035332;28;20060;-64
2024/02/14 07:59:17;;;;;;;10.02;5.15;;;;;;;;;;5022352;28;20131;-66
2024/02/14 08:01:45;;;;;;;11.00;5.28;;;;;;;;;;5032280;28;20057;-66
2024/02/14 08:04:15;;;;;;;8.70;4.68;;;;;;;;;;5030109;28;20045;-66
2024/02/14 08:06:46;;;;;;;12.27;5.18;;;;;;;;;;5036402;28;20471;-65
2024/02/14 08:09:12;;;;;;;10.15;4.80;;;;;;;;;;5037625;28;20049;-66
2024/02/14 08:11:40;;;;;;;14.18;5.10;;;;;;;;;;5033790;28;20159;-64
2024/02/14 08:14:07;;;;;;;9.73;4.70;;;;;;;;;;5027782;28;20060;-65
2024/02/14 08:16:35;;;;;;;12.30;5.03;;;;;;;;;;5035679;28;20116;-66
2024/02/14 08:19:03;;;;;;;9.48;4.65;;;;;;;;;;5040441;28;20045;-65
2024/02/14 08:21:30;;;;;;;8.63;4.22;;;;;;;;;;5024166;28;20060;-66
2024/02/14 08:24:00;;;;;;;8.07;4.68;;;;;;;;;;5029193;28;20072;-65
2024/02/14 08:26:27;;;;;;;10.52;4.97;;;;;;;;;;5030688;28;20056;-65
2024/02/14 08:28:54;;;;;;;10.48;4.90;;;;;;;;;;5032566;28;20060;-65
2024/02/14 08:31:21;;;;;;;9.13;4.63;;;;;;;;;;5040280;28;20064;-66
2024/02/14 08:33:48;;;;;;;10.05;4.43;;;;;;;;;;5013195;28;20144;-65
2024/02/14 08:36:16;;;;;;;9.43;4.53;;;;;;;;;;5038787;28;20046;-65
2024/02/14 08:38:43;;;;;;;9.73;4.03;;;;;;;;;;5015481;28;20136;-65
2024/02/14 08:41:13;;;;;;;9.38;4.65;;;;;;;;;;5011516;28;20045;-65
2024/02/14 08:43:40;;;;;;;7.32;3.38;;;;;;;;;;5001217;28;20053;-65
2024/02/14 08:46:11;;;;;;;8.95;4.40;;;;;;;;;;5015222;28;20337;-64
2024/02/14 08:48:41;;;;;;;8.40;4.05;;;;;;;;;;5018223;28;20080;-65
2024/02/14 08:51:09;;;;;;;9.68;4.57;;;;;;;;;;5018265;28;20060;-66
2024/02/14 08:53:38;;;;;;;8.15;3.72;;;;;;;;;;5015680;28;20302;-66
2024/02/14 08:56:06;;;;;;;7.35;3.35;;;;;;;;;;5025841;28;20071;-64
2024/02/14 08:58:35;;;;;;;14.68;4.57;;;;;;;;;;5039048;28;20120;-66
2024/02/14 09:01:02;;;;;;;10.82;4.88;;;;;;;;;;5029917;28;20056;-66
2024/02/14 09:03:30;;;;;;;9.05;4.25;;;;;;;;;;5034616;28;20144;-66
2024/02/14 09:06:03;;;;;;;10.57;5.07;;;;;;;;;;5018958;28;20058;-66
2024/02/14 09:08:30;;;;;;;12.98;5.07;;;;;;;;;;5038779;28;20110;-66
2024/02/14 09:10:58;;;;;;;10.75;4.68;;;;;;;;;;5036855;28;20053;-65
2024/02/14 09:13:27;;;;;;;8.13;3.97;;;;;;;;;;5028716;28;20052;-66
2024/02/14 09:15:55;;;;;;;10.07;4.78;;;;;;;;;;5025479;28;20162;-66
2024/02/14 09:18:24;;;;;;;8.18;4.35;;;;;;;;;;5036841;28;20045;-67
2024/02/14 09:20:51;;;;;;;11.90;5.45;;;;;;;;;;5038258;28;20057;-67
2024/02/14 09:23:20;;;;;;;12.65;5.00;;;;;;;;;;5037077;28;20129;-66
2024/02/14 09:25:47;;;;;;;12.02;5.28;;;;;;;;;;5027997;28;20117;-66
2024/02/14 09:28:15;;;;;;;10.43;5.03;;;;;;;;;;5035460;28;20068;-66
2024/02/14 09:30:41;;;;;;;10.10;4.95;;;;;;;;;;5039145;28;20095;-67
2024/02/14 09:33:10;;;;;;;14.05;5.05;;;;;;;;;;5038411;28;20049;-67
2024/02/14 09:35:37;;;;;;;8.48;4.28;;;;;;;;;;5029355;28;20064;-66
2024/02/14 09:38:05;;;;;;;8.70;4.78;;;;;;;;;;5032864;28;20045;-66
2024/02/14 09:40:32;;;;;;;9.98;4.63;;;;;;;;;;5038707;28;20069;-67
2024/02/14 09:43:07;;;;;;;13.98;5.28;;;;;;;;;;5032436;28;20159;-68
2024/02/14 09:45:34;;;;;;;12.52;4.80;;;;;;;;;;5018616;28;20056;-66
2024/02/14 09:48:01;;;;;;;8.45;4.47;;;;;;;;;;5032386;28;20148;-67
2024/02/14 09:50:32;;;;;;;9.80;4.85;;;;;;;;;;5035712;28;20040;-68
2024/02/14 09:52:59;;;;;;;9.77;4.55;;;;;;;;;;5032115;28;20045;-68
2024/02/14 09:55:27;;;;;;;9.90;4.63;;;;;;;;;;5021580;28;20061;-67
2024/02/14 09:57:55;;;;;;;7.55;4.13;;;;;;;;;;5026853;28;20052;-66
2024/02/14 10:00:23;;;;;;;10.70;4.63;;;;;;;;;;5021501;28;20098;-65
2024/02/14 10:02:56;;;;;;;8.18;4.20;;;;;;;;;;5027357;28;20051;-66
2024/02/14 10:05:23;;;;;;;11.23;4.63;;;;;;;;;;5030267;28;20057;-65
2024/02/14 10:07:51;;;;;;;10.85;4.30;;;;;;;;;;5028828;28;20044;-66
2024/02/14 10:10:18;;;;;;;8.90;4.15;;;;;;;;;;5034832;28;20057;-65
2024/02/14 10:12:45;;;;;;;11.35;4.20;;;;;;;;;;5036255;28;20053;-65
2024/02/14 10:15:12;;;;;;;12.02;4.78;;;;;;;;;;5033122;28;20069;-66
2024/02/14 10:17:41;;;;;;;7.50;3.95;;;;;;;;;;5035166;28;20059;-66
2024/02/14 10:20:10;;;;;;;8.15;4.30;;;;;;;;;;5031944;28;20210;-65
2024/02/14 10:22:38;;;;;;;10.02;4.13;;;;;;;;;;5033755;28;20088;-67
2024/02/14 10:25:12;;;;;;;9.50;4.20;;;;;;;;;;5021587;28;20064;-67
2024/02/14 10:27:40;;;;;;;11.52;5.03;;;;;;;;;;5027140;28;20134;-67
2024/02/14 10:30:09;;;;;;;8.93;4.15;;;;;;;;;;5030280;28;20280;-67
2024/02/14 10:32:37;;;;;;;12.77;5.78;;;;;;;;;;5032172;28;20054;-65
2024/02/14 10:35:08;;;;;;;8.15;4.53;;;;;;;;;;5030799;28;20053;-68
2024/02/14 10:37:37;;;;;;;15.13;7.22;;;;;;;;;;5035667;28;20049;-66
2024/02/14 10:40:10;;;;;;;7.43;4.13;;;;;;;;;;5034262;28;20100;-66
2024/02/14 10:42:38;;;;;;;10.65;4.60;;;;;;;;;;5031963;28;20048;-67
2024/02/14 10:45:06;;;;;;;10.52;4.30;;;;;;;;;;5009076;28;20053;-66
2024/02/14 10:47:35;;;;;;;9.98;4.45;;;;;;;;;;5023788;28;20056;-65
2024/02/14 10:50:05;;;;;;;11.77;4.35;;;;;;;;;;5035534;28;20072;-65
2024/02/14 10:52:34;;;;;;;7.25;3.95;;;;;;;;;;5034014;28;20080;-66
2024/02/14 10:55:06;;;;;;;11.85;3.78;;;;;;;;;;5027622;28;20053;-65
2024/02/14 10:57:34;;;;;;;8.55;4.28;;;;;;;;;;5034682;28;20045;-67
2024/02/14 11:00:04;;;;;;;;;;;;;;;;;;5027984;28;20095;-66
2024/02/14 11:02:32;;;;;;;12.13;4.63;;;;;;;;;;5025344;28;19924;-67
2024/02/14 11:05:00;;;;;;;9.95;5.00;;;;;;;;;;5018713;28;20053;-65
2024/02/14 11:07:28;;;;;;;11.60;3.93;;;;;;;;;;5030685;28;20053;-67
2024/02/14 11:10:05;;;;;;;9.02;4.65;;;;;;;;;;5024554;28;20303;-66
2024/02/14 11:12:36;;;;;;;7.28;4.30;;;;;;;;;;5033762;28;20049;-67
2024/02/14 11:15:11;;;;;;;9.05;3.78;;;;;;;;;;5028424;28;20118;-66
2024/02/14 11:17:42;;;;;;;8.10;3.78;;;;;;;;;;5026168;28;20056;-65
2024/02/14 11:20:16;;;;;;;8.52;4.40;;;;;;;;;;5035802;28;20049;-65
2024/02/14 11:23:11;;;;;;;7.90;4.03;;;;;;;;;;5033767;28;20061;-67
2024/02/14 11:25:40;;;;;;;8.90;4.35;;;;;;;;;;4999898;28;20071;-66
2024/02/14 11:28:16;;;;;;;10.50;4.60;;;;;;;;;;5030460;28;20123;-65
2024/02/14 11:30:43;;;;;;;16.50;4.72;;;;;;;;;;5030285;28;20052;-65
2024/02/14 11:33:18;;;;;;;11.63;4.93;;;;;;;;;;5029609;28;20099;-66
2024/02/14 11:35:47;;;;;;;8.35;3.83;;;;;;;;;;5007413;28;20300;-66
2024/02/14 11:38:14;;;;;;;8.57;3.13;;;;;;;;;;5028565;28;20219;-67
2024/02/14 11:40:41;;;;;;;9.48;4.07;;;;;;;;;;5029294;28;20239;-66
2024/02/14 11:43:13;;;;;;;8.13;4.07;;;;;;;;;;5031030;28;20045;-65
2024/02/14 11:45:43;;;;;;;7.55;3.92;;;;;;;;;;4994828;28;20136;-66
2024/02/14 11:48:13;;;;;;;8.52;3.60;;;;;;;;;;5011351;28;21032;-66
2024/02/14 11:50:43;;;;;;;9.73;3.70;;;;;;;;;;5017184;28;20049;-66
2024/02/14 11:53:11;;;;;;;8.65;3.50;;;;;;;;;;5020783;28;20060;-66
2024/02/14 11:55:40;;;;;;;12.32;3.55;;;;;;;;;;5005676;28;20049;-66
2024/02/14 11:58:10;;;;;;;11.13;3.83;;;;;;;;;;4999295;28;20128;-65
2024/02/14 12:00:39;;;;;;;10.63;3.83;;;;;;;;;;5002568;28;20065;-64
2024/02/14 12:03:14;;;;;;;8.90;3.65;;;;;;;;;;5012493;28;20067;-67
2024/02/14 12:05:51;;;;;;;9.13;3.47;;;;;;;;;;5024672;28;20144;-66
2024/02/14 12:08:28;;;;;;;12.55;4.82;;;;;;;;;;5038472;28;20045;-65
2024/02/14 12:10:55;;;;;;;8.23;3.83;;;;;;;;;;5023268;28;20139;-65
2024/02/14 12:13:22;;;;;;;7.15;3.38;;;;;;;;;;5030206;28;20065;-66
2024/02/14 12:15:55;;;;;;;8.77;4.15;;;;;;;;;;5026358;28;20131;-66
2024/02/14 12:18:23;;;;;;;9.63;4.05;;;;;;;;;;5031177;28;20069;-68
2024/02/14 12:20:51;;;;;;;7.22;3.35;;;;;;;;;;5026979;28;20130;-66
2024/02/14 12:23:20;;;;;;;5.88;2.85;;;;;;;;;;5034558;28;20086;-66
2024/02/14 12:25:52;;;;;;;6.90;2.95;;;;;;;;;;5016991;28;20060;-67
2024/02/14 12:28:24;;;;;;;8.23;3.00;;;;;;;;;;5035611;28;20049;-66
2024/02/14 12:30:56;;;;;;;5.72;2.83;;;;;;;;;;5039244;28;20049;-66
2024/02/14 12:33:25;;;;;;;7.25;3.20;;;;;;;;;;5041257;28;20049;-67
2024/02/14 12:35:54;;;;;;;6.90;3.05;;;;;;;;;;5000610;28;20052;-65
2024/02/14 12:38:22;;;;;;;9.20;2.90;;;;;;;;;;5037348;28;20059;-67
2024/02/14 12:40:49;;;;;;;;;;;;;;;;;;5037692;28;20037;-66
2024/02/14 12:43:17;;;;;;;6.72;2.72;;;;;;;;;;5035192;28;19931;-65
2024/02/14 12:45:44;;;;;;;6.60;2.88;;;;;;;;;;5022516;28;20049;-65
2024/02/14 12:48:13;;;;;;;8.32;3.47;;;;;;;;;;5036176;28;20087;-64
2024/02/14 12:50:48;;;;;;;5.57;3.00;;;;;;;;;;5033803;28;20050;-64
2024/02/14 12:53:15;;;;;;;5.65;2.80;;;;;;;;;;5029868;28;20049;-65
2024/02/14 12:55:42;;;;;;;4.78;2.38;;;;;;;;;;5021647;28;20045;-66
2024/02/14 12:58:11;;;;;;;4.78;2.33;;;;;;;;;;5038341;28;20049;-66
2024/02/14 13:00:37;;;;;;;;;;;;;;;;;;5038221;28;20121;-63
2024/02/14 13:03:05;;;;;;;3.95;1.98;;;;;;;;;;5038306;28;19925;-64
2024/02/14 13:05:32;;;;;;;4.40;2.03;;;;;;;;;;5013111;28;20055;-65
2024/02/14 13:08:03;;;;;;;5.15;2.40;;;;;;;;;;5026574;28;20280;-66
2024/02/14 13:10:31;;;;;;;4.88;2.63;;;;;;;;;;5027480;28;20132;-66
2024/02/14 13:12:58;;;;;;;5.90;2.05;;;;;;;;;;5036305;28;20098;-64
2024/02/14 13:15:25;;;;;;;4.63;2.20;;;;;;;;;;5015138;28;20088;-65
2024/02/14 13:17:56;;;;;;;5.38;2.30;;;;;;;;;;5030757;28;20051;-66
2024/02/14 13:20:24;;;;;;;5.07;2.03;;;;;;;;;;5028287;28;20068;-65
2024/02/14 13:22:51;;;;;;;3.20;1.88;;;;;;;;;;5038463;28;20049;-64
2024/02/14 13:25:23;;;;;;;5.20;2.00;;;;;;;;;;5025052;28;20060;-64
2024/02/14 13:27:58;;;;;;;3.92;1.83;;;;;;;;;;5022707;28;20080;-69
2024/02/14 13:30:25;;;;;;;3.78;2.08;;;;;;;;;;5019888;28;20046;-65
2024/02/14 13:33:00;;;;;;;4.60;2.13;;;;;;;;;;5024854;28;20045;-65
2024/02/14 13:35:27;;;;;;;4.00;1.88;;;;;;;;;;5022644;28;20056;-66
2024/02/14 13:37:58;;;;;;;6.20;2.15;;;;;;;;;;5043253;28;20048;-64
2024/02/14 13:40:26;;;;;;;8.90;2.28;;;;;;;;;;5029670;28;20061;-64
2024/02/14 13:42:53;;;;;;;3.65;1.92;;;;;;;;;;5038856;28;20120;-65
2024/02/14 13:45:50;;;;;;;7.70;2.60;;;;;;;;;;5005287;28;20054;-65
2024/02/14 13:48:22;;;;;;;5.00;2.28;;;;;;;;;;5010372;28;20137;-64
2024/02/14 13:50:51;;;;;;;6.18;2.65;;;;;;;;;;5011507;28;20053;-63
2024/02/14 13:53:22;;;;;;;;;;;;;;;;;;5018251;28;20061;-65
2024/02/14 13:55:51;;;;;;;4.32;2.30;;;;;;;;;;5023436;28;19925;-65
2024/02/14 13:58:18;;;;;;;6.25;3.20;;;;;;;;;;5035791;28;20045;-66
2024/02/14 14:00:45;;;;;;;6.22;2.90;;;;;;;;;;5036754;28;20139;-66
2024/02/14 14:03:12;;;;;;;5.65;2.60;;;;;;;;;;5035521;28;20115;-65
2024/02/14 14:05:43;;;;;;;7.45;3.17;;;;;;;;;;4982204;28;20057;-64
2024/02/14 14:08:10;;;;;;;6.53;2.70;;;;;;;;;;5014965;28;20061;-66
2024/02/14 14:10:37;;;;;;;6.63;3.17;;;;;;;;;;5015818;28;20068;-64
2024/02/14 14:13:06;;;;;;;9.48;4.07;;;;;;;;;;5017322;28;20064;-68
2024/02/14 14:15:33;;;;;;;6.45;3.53;;;;;;;;;;5010246;28;20049;-64
2024/02/14 14:18:00;;;;;;;6.15;2.83;;;;;;;;;;5012009;28;20057;-67
2024/02/14 14:20:27;;;;;;;7.82;3.00;;;;;;;;;;5016172;28;20049;-64
2024/02/14 14:22:54;;;;;;;5.45;2.97;;;;;;;;;;5018360;28;20053;-65
2024/02/14 14:25:20;;;;;;;8.45;3.28;;;;;;;;;;4992056;28;20060;-65
2024/02/14 14:27:47;;;;;;;5.45;3.13;;;;;;;;;;5005658;28;20088;-65
2024/02/14 14:30:20;;;;;;;8.10;3.70;;;;;;;;;;5003609;28;20141;-65
2024/02/14 14:32:49;;;;;;;6.82;3.67;;;;;;;;;;5022599;28;20063;-67
2024/02/14 14:35:16;;;;;;;6.40;2.72;;;;;;;;;;5022282;28;20052;-66
2024/02/14 14:37:45;;;;;;;8.32;3.40;;;;;;;;;;5029293;28;20060;-65
2024/02/14 14:40:17;;;;;;;4.95;2.85;;;;;;;;;;5025457;28;20065;-66
2024/02/14 14:42:44;;;;;;;7.00;3.10;;;;;;;;;;5024585;28;20124;-66
2024/02/14 14:45:11;;;;;;;6.70;2.92;;;;;;;;;;5001125;28;20045;-67
2024/02/14 14:50:31;;;;;;;6.68;2.92;;;;;;;;;;5014177;28;20049;-67